Weather observations for the past three days for
Jesup-Wayne County Airport
Imperial (Metric)
Date Time (edt) Wind (mph) Vis. (mi.) Weather Sky Cond. Temperature (ºF) Relative Humidity Wind Chill (°F) Heat Index (°F) Pressure Precipitation (in)
Air Dwpt 6 hour altimeter (in) sea level (mb) 1 hr 3 hr 6 hr
Max. Min.
06 03:50 Calm 10.00 Fair CLR 55.4 53.6 94% 30.02 0.0
06 03:30 Calm 10.00 Fair CLR 55.4 55.4 100% 30.02 0.0
06 03:10 Calm 10.00 Fair CLR 57.2 55.4 94% 30.02 0.0
06 02:50 Calm 10.00 Fair CLR 57.2 55.4 94% 30.02 0.0
06 02:30 Calm 10.00 Fair CLR 59 55.4 88% 30.02 0.0
06 02:10 Calm 10.00 Fair CLR 57.2 55.4 94% 30.02 0.0
06 01:50 Calm 10.00 Fair CLR 57.2 53.6 88% 30.03 0.0
06 01:30 Calm 10.00 Fair CLR 57.2 55.4 94% 30.04 0.0
06 01:10 Calm 10.00 Fair CLR 59 55.4 88% 30.05 0.0
06 00:50 Calm 10.00 Fair CLR 59 55.4 88% 30.05 0.0
06 00:30 Calm 10.00 Fair CLR 60.8 55.4 83% 30.05 0.0
06 00:10 Calm 10.00 Fair CLR 59 55.4 88% 30.04 0.0
05 23:50 Calm 10.00 Fair CLR 60.8 55.4 83% 30.05 0.0
05 23:30 Calm 10.00 Fair CLR 60.8 55.4 83% 30.05 0.0
05 23:10 Calm 10.00 Fair CLR 60.8 57.2 88% 30.06 0.0
05 22:50 Calm 10.00 Fair CLR 62.6 57.2 83% 30.05 0.0
05 22:30 Calm 10.00 Fair CLR 64.4 57.2 78% 30.05 0.0
05 22:10 Calm 10.00 Fair CLR 64.4 57.2 78% 30.04 0.0
05 21:50 Calm 10.00 Fair CLR 68 57.2 69% 30.04 0.0
05 21:30 Calm 10.00 Fair CLR 68 57.2 69% 30.03 0.0
05 21:10 Calm 10.00 Fair CLR 69.8 57.2 64% 30.03 0.0
05 20:50 Calm 10.00 Fair CLR 69.8 57.2 64% 30.02 0.0
05 20:30 Calm 10.00 Fair CLR 71.6 57.2 61% 30.02 0.0
05 20:10 Calm 10.00 Fair CLR 71.6 57.2 61% 30.01 0.0
05 19:50 Calm 10.00 Fair CLR 73.4 57.2 57% 30 0.0
05 19:30 SE 6 10.00 Fair CLR 75.2 57.2 54% 78 30 0.0
05 19:10 SE 5 10.00 Fair CLR 77 57.2 51% 79 30.01 0.0
05 18:50 SE 7 10.00 Fair CLR 78.8 55.4 45% 79 30 0.0
05 18:30 Calm 10.00 Fair CLR 80.6 55.4 42% 81 30 0.0
05 18:10 SE 7 10.00 Fair CLR 80.6 55.4 42% 81 29.99 0.0
05 17:50 SE 8 10.00 Fair CLR 80.6 55.4 42% 81 30 0.0
05 17:30 SE 8 10.00 Fair CLR 80.6 55.4 42% 81 30 0.0
05 17:10 SE 8 10.00 Fair CLR 82.4 57.2 42% 82 29.99 0.0
05 16:50 S 7 10.00 Partly Cloudy SCT090 82.4 55.4 40% 82 30 0.0
05 16:30 Calm 10.00 Partly Cloudy SCT070 SCT080 82.4 55.4 40% 82 30 0.0
05 16:10 E 8 10.00 Overcast SCT070 OVC080 82.4 55.4 40% 82 30 0.0
05 15:50 Calm 10.00 Mostly Cloudy BKN080 82.4 46.4 28% 81 30.01 0.0
05 15:30 Calm 10.00 Mostly Cloudy BKN080 BKN090 86 48.2 27% 83 30.02 0.0
05 15:10 Calm 10.00 Mostly Cloudy BKN080 84.2 48.2 29% 82 30.03 0.0
05 14:50 Calm 10.00 Partly Cloudy SCT070 86 50 29% 84 30.03 0.0
05 14:30 S 5 10.00 Mostly Cloudy BKN070 86 50 29% 84 30.04 0.0
05 14:10 Calm 10.00 Mostly Cloudy BKN070 82.4 50 32% 81 30.05 0.0
05 13:50 Calm 10.00 Partly Cloudy SCT070 82.4 50 32% 81 30.05 0.0
05 13:30 Calm 10.00 Partly Cloudy SCT070 84.2 50 31% 82 30.05 0.0
05 13:10 Calm 10.00 Fair CLR 82.4 51.8 35% 81 30.06 0.0
05 12:50 Calm 10.00 Partly Cloudy SCT065 82.4 50 32% 81 30.06 0.0
05 12:30 Calm 10.00 Fair CLR 82.4 50 32% 81 30.07 0.0
05 12:10 Calm 10.00 Fair CLR 80.6 50 34% 80 30.07 0.0
05 11:50 Calm 10.00 Partly Cloudy SCT050 SCT060 80.6 53.6 39% 80 30.08 0.0
05 11:30 Calm 10.00 Partly Cloudy SCT048 78.8 55.4 45% 79 30.08 0.0
05 11:10 Calm 10.00 Fair CLR 78.8 57.2 48% 80 30.09 0.0
05 10:50 Calm 10.00 Fair CLR 77 55.4 47% 79 30.08 0.0
05 10:30 Calm 10.00 Fair CLR 77 55.4 47% 79 30.08 0.0
05 10:10 Calm 10.00 Fair CLR 77 55.4 47% 79 30.08 0.0
05 09:50 Calm 10.00 Fair CLR 75.2 59 57% 78 30.08 0.0
05 09:30 Calm 10.00 Fair CLR 71.6 59 65% 30.08 0.0
05 09:10 Calm 10.00 Fair CLR 69.8 59 69% 30.08 0.0
05 08:50 Calm 10.00 Fair CLR 68 59 73% 30.08 0.0
05 08:30 Calm 10.00 Fair CLR 62.6 57.2 83% 30.08 0.0
05 07:50 Calm 10.00 Fair CLR 55.4 53.6 94% 30.07 0.0
05 07:30 Calm 10.00 Fair CLR 51.8 50 94% 30.06 0.0
05 07:10 Calm 10.00 Fair CLR 50 46.4 88% 30.06 0.0
05 06:50 Calm 10.00 Fair CLR 46.4 46.4 100% 30.05 0.0
05 06:30 Calm 10.00 Fair CLR 46.4 46.4 100% 30.05 0.0
05 06:10 Calm 10.00 Fair CLR 48.2 46.4 94% 30.05 0.0
05 05:50 Calm 10.00 Fair CLR 50 48.2 94% 30.05 0.0
05 05:30 Calm 10.00 Fair CLR 50 46.4 88% 30.04 0.0
05 05:10 Calm 10.00 Fair CLR 50 48.2 94% 30.03 0.0
05 04:50 Calm 10.00 Fair CLR 50 48.2 94% 30.03 0.0
05 04:30 Calm 10.00 Fair CLR 50 48.2 94% 30.03 0.0
05 04:10 Calm 10.00 Fair CLR 50 50 100% 30.03 0.0
05 03:50 Calm 10.00 Fair CLR 50 48.2 94% 30.02 0.0
05 03:30 Calm 10.00 Fair CLR 50 50 100% 30.02 0.0
05 03:10 Calm 10.00 Fair CLR 50 48.2 94% 30.03 0.0
05 02:50 Calm 10.00 Fair CLR 51.8 50 94% 30.04 0.0
05 02:30 Calm 10.00 Fair CLR 51.8 50 94% 30.04 0.0
05 02:10 Calm 10.00 Fair CLR 51.8 50 94% 30.05 0.0
05 01:50 Calm 10.00 Fair CLR 53.6 51.8 94% 30.05 0.0
05 01:30 Calm 10.00 Fair CLR 53.6 50 88% 30.06 0.0
05 01:10 Calm 10.00 Fair CLR 53.6 51.8 94% 30.06 0.0
05 00:50 Calm 10.00 Fair CLR 55.4 51.8 88% 30.07 0.0
05 00:30 Calm 10.00 Fair CLR 55.4 51.8 88% 30.07 0.0
05 00:10 Calm 10.00 Fair CLR 55.4 53.6 94% 30.07 0.0
04 23:50 Calm 10.00 Fair CLR 59 53.6 82% 30.07 0.0
04 23:30 Calm 10.00 Fair CLR 59 53.6 82% 30.07 0.0
04 23:10 Calm 10.00 Fair CLR 60.8 53.6 77% 30.07 0.0
04 22:50 Calm 10.00 Fair CLR 62.6 53.6 73% 30.07 0.0
04 22:30 Calm 10.00 Fair CLR 62.6 53.6 73% 30.06 0.0
04 22:10 Calm 10.00 Fair CLR 64.4 53.6 68% 30.06 0.0
04 21:50 Calm 10.00 Fair CLR 64.4 53.6 68% 30.05 0.0
04 21:30 Calm 10.00 Fair CLR 66.2 53.6 64% 30.05 0.0
04 21:10 Calm 10.00 Fair CLR 68 53.6 60% 30.05 0.0
04 20:50 Calm 10.00 Fair CLR 68 53.6 60% 30.05 0.0
04 20:30 Calm 10.00 Fair CLR 69.8 53.6 57% 30.05 0.0
04 20:10 Calm 10.00 Fair CLR 69.8 53.6 57% 30.04 0.0
04 19:50 S 6 10.00 Fair CLR 71.6 51.8 50% 30.04 0.0
04 19:30 Calm 10.00 Fair CLR 73.4 50 44% 30.03 0.0
04 19:10 S 7 10.00 Fair CLR 73.4 48.2 41% 30.02 0.0
04 18:50 SE 3 10.00 Fair CLR 77 46.4 34% 78 30.02 0.0
04 18:30 S 7 10.00 Fair CLR 77 46.4 34% 78 30.02 0.0
04 18:10 SE 9 10.00 Fair CLR 78.8 46.4 32% 79 30.02 0.0
04 17:50 SE 8 10.00 Fair CLR 78.8 46.4 32% 79 30.02 0.0
04 17:30 SE 7 10.00 Fair CLR 78.8 46.4 32% 79 30.02 0.0
04 17:10 SE 7 10.00 Fair CLR 80.6 46.4 30% 80 30.02 0.0
04 16:50 S 9 10.00 Fair CLR 80.6 46.4 30% 80 30.02 0.0
04 16:30 S 6 10.00 Fair CLR 80.6 46.4 30% 80 30.02 0.0
04 16:10 SE 9 10.00 Fair CLR 80.6 46.4 30% 80 30.02 0.0
04 15:50 SW 5 10.00 Fair CLR 80.6 41 24% 79 30.04 0.0
04 15:30 SE 6 10.00 Fair CLR 80.6 39.2 23% 79 30.04 0.0
04 15:10 S 6 10.00 Fair CLR 80.6 41 24% 79 30.05 0.0
04 14:50 Calm 10.00 Fair CLR 80.6 42.8 26% 79 30.06 0.0
04 14:30 SE 7 10.00 Fair CLR 80.6 42.8 26% 79 30.06 0.0
04 13:50 SW 5 10.00 Fair CLR 78.8 42.8 28% 78 30.07 0.0
04 13:30 Calm 7.00 Fair CLR 78.8 44.6 30% 79 30.08 0.0
04 13:10 Calm 10.00 Fair CLR 78.8 44.6 30% 79 30.08 0.0
04 12:30 Calm 10.00 Fair CLR 77 44.6 32% 78 30.09 0.0
04 12:10 Calm 10.00 Fair CLR 77 44.6 32% 78 30.1 0.0
04 11:50 Calm 10.00 Fair CLR 75.2 44.6 34% 77 30.1 0.0
04 11:30 NW 5 10.00 Fair CLR 75.2 44.6 34% 77 30.11 0.0
04 11:10 Calm 10.00 Fair CLR 77 48.2 36% 78 30.12 0.0
04 10:50 Calm 10.00 Fair CLR 77 48.2 36% 78 30.12 0.0
04 10:30 Calm 10.00 Fair CLR 73.4 51.8 47% 30.12 0.0
04 10:10 Calm 10.00 Fair CLR 71.6 55.4 57% 30.12 0.0
04 09:50 Calm 10.00 Fair CLR 69.8 55.4 60% 30.12 0.0
04 09:30 Calm 10.00 Fair CLR 68 57.2 69% 30.12 0.0
04 09:10 Calm 10.00 Fair CLR 64.4 57.2 78% 30.12 0.0
04 08:50 Calm 10.00 Fair CLR 60.8 55.4 83% 30.12 0.0
04 08:30 Calm 10.00 Fair CLR 55.4 53.6 94% 30.11 0.0
04 08:10 Calm 10.00 Fair CLR 51.8 50 94% 30.11 0.0
04 07:50 Calm 10.00 Fair CLR 48.2 46.4 94% 30.11 0.0
04 07:30 Calm 10.00 Fair CLR 44.6 44.6 100% 30.11 0.0
04 07:10 Calm 10.00 Fair CLR 42.8 42.8 100% 30.1 0.0
04 06:50 Calm 10.00 Fair CLR 42.8 41 93% 30.1 0.0
04 06:30 Calm 10.00 Fair CLR 42.8 41 93% 30.1 0.0
04 06:10 Calm 10.00 Fair CLR 42.8 42.8 100% 30.09 0.0
04 05:50 Calm 10.00 Fair CLR 42.8 42.8 100% 30.09 0.0
04 05:30 Calm 10.00 Fair CLR 42.8 42.8 100% 30.09 0.0
04 05:10 Calm 10.00 Fair CLR 44.6 42.8 93% 30.09 0.0
04 04:50 Calm 10.00 Fair CLR 42.8 42.8 100% 30.09 0.0
04 04:30 Calm 10.00 Fair CLR 42.8 42.8 100% 30.09 0.0
04 04:10 Calm 10.00 Fair CLR 44.6 44.6 100% 30.1 0.0
04 03:50 Calm 10.00 Fair CLR 46.4 44.6 93% 30.1 0.0
04 03:30 Calm 10.00 Fair CLR 46.4 46.4 100% 30.11 0.0
04 03:10 Calm 10.00 Fair CLR 46.4 44.6 93% 30.11 0.0
04 02:50 Calm 10.00 Fair CLR 46.4 44.6 93% 30.11 0.0
04 02:30 Calm 10.00 Fair CLR 46.4 44.6 93% 30.11 0.0
04 02:10 Calm 10.00 Fair CLR 46.4 46.4 100% 30.12 0.0
04 01:50 Calm 10.00 Fair CLR 46.4 46.4 100% 30.12 0.0
04 01:30 Calm 10.00 Fair CLR 50 48.2 94% 30.12 0.0
04 01:10 Calm 10.00 Fair CLR 50 48.2 94% 30.12 0.0
04 00:30 Calm 10.00 Fair CLR 50 48.2 94% 30.12 0.0
04 00:10 Calm 10.00 Fair CLR 50 48.2 94% 30.12 0.0
03 23:50 Calm 10.00 Fair CLR 51.8 50 94% 30.12 0.0
03 23:30 Calm 10.00 Fair CLR 53.6 51.8 94% 30.12 0.0
03 23:10 Calm 10.00 Fair CLR 53.6 50 88% 30.12 0.0
03 22:50 Calm 10.00 Fair CLR 55.4 51.8 88% 30.12 0.0
03 22:30 Calm 10.00 Fair CLR 55.4 51.8 88% 30.12 0.0
03 22:10 Calm 10.00 Fair CLR 59 51.8 77% 30.11 0.0
03 21:50 Calm 10.00 Fair CLR 60.8 51.8 72% 30.11 0.0
03 21:30 Calm 10.00 Fair CLR 60.8 51.8 72% 30.1 0.0
03 21:10 Calm 10.00 Fair CLR 62.6 51.8 68% 30.1 0.0
03 20:50 Calm 10.00 Fair CLR 62.6 51.8 68% 30.09 0.0
03 20:30 Calm 10.00 Fair CLR 64.4 51.8 64% 30.08 0.0
03 20:10 Calm 10.00 Fair CLR 66.2 51.8 60% 30.08 0.0
03 19:50 Calm 10.00 Fair CLR 68 51.8 56% 30.08 0.0
03 19:30 Calm 10.00 Fair CLR 69.8 51.8 53% 30.07 0.0
03 19:10 Calm 10.00 Fair CLR 71.6 51.8 50% 30.07 0.0
03 18:50 Calm 10.00 Fair CLR 73.4 51.8 47% 30.07 0.0
03 18:30 Calm 10.00 Fair CLR 75.2 42.8 31% 77 30.06 0.0
03 18:10 Calm 10.00 Fair CLR 75.2 42.8 31% 77 30.07 0.0
03 17:50 Calm 10.00 Fair CLR 75.2 41 29% 77 30.07 0.0
03 17:35 Calm 10.00 Fair CLR 77 41 28% 78 30.07 0.0
03 17:10 Calm 10.00 Fair CLR 77 41 28% 78 30.07 0.0
03 16:50 Calm 10.00 Fair CLR 77 41 28% 78 30.08 0.0
03 16:30 Calm 10.00 Fair CLR 77 41 28% 78 30.07 0.0
03 16:10 Calm 10.00 Fair CLR 77 41 28% 78 30.08 0.0
03 15:50 Calm 10.00 Fair CLR 75.2 41 29% 77 30.08 0.0
03 15:30 Calm 10.00 Fair CLR 77 41 28% 78 30.1 0.0
03 15:10 Calm 10.00 Fair CLR 73.4 41 31% 30.11 0.0
03 14:50 NW 5 10.00 Fair CLR 73.4 41 31% 30.12 0.0
03 14:30 Calm 10.00 Fair CLR 73.4 41 31% 30.13 0.0
03 14:10 Calm 10.00 Fair CLR 73.4 42.8 33% 30.13 0.0
03 13:50 Calm 10.00 Fair CLR 73.4 42.8 33% 30.14 0.0
03 13:30 Calm 10.00 Fair CLR 71.6 44.6 38% 30.14 0.0
03 13:10 Calm 10.00 Partly Cloudy SCT055 71.6 42.8 36% 30.15 0.0
03 12:50 Calm 10.00 Mostly Cloudy BKN055 71.6 44.6 38% 30.15 0.0
03 12:30 Calm 10.00 Fair CLR 71.6 44.6 38% 30.16 0.0
03 12:10 Calm 10.00 Fair CLR 69.8 46.4 43% 30.17 0.0
03 11:50 Calm 10.00 Fair CLR 69.8 44.6 40% 30.16 0.0
03 11:30 Calm 10.00 Fair CLR 69.8 46.4 43% 30.16 0.0
03 11:10 Calm 10.00 Fair CLR 68 50 53% 30.16 0.0
03 10:50 Calm 10.00 Fair CLR 64.4 51.8 64% 30.16 0.0
03 10:30 Calm 10.00 Fair CLR 60.8 51.8 72% 30.16 0.0
03 10:10 Calm 10.00 Fair CLR 59 51.8 77% 30.15 0.0
03 09:50 Calm 10.00 Fair CLR 57.2 51.8 82% 30.15 0.0
03 09:30 Calm 10.00 Fair CLR 39.2 37.4 93% 30.15 0.0
03 09:10 Calm 7.00 Partly Cloudy SCT003 23 23 100% 30.16 0.0
03 08:50 Calm 5.00 Fog/Mist BKN003 BKN007 28.4 28.4 100% 30.15 0.0
03 08:30 Calm 5.00 Fog/Mist OVC003 30.2 30.2 100% 30.15 0.0
03 08:10 Calm 3.00 Fog/Mist OVC003 32 32 100% 30.14 0.0
03 07:50 Calm 0.25 Fog OVC003 33.8 33.8 100% 30.14 0.0
03 07:30 Calm 0.50 Fog OVC003 37.4 37.4 100% 30.13 0.0
03 07:10 Calm 1.50 Fog/Mist OVC003 41 41 100% 30.12 0.0
03 06:50 Calm 1.00 Fog/Mist OVC003 42.8 42.8 100% 30.11 0.0
03 06:30 Calm 7.00 Overcast OVC003 44.6 44.6 100% 30.11 0.0
03 06:10 Calm 10.00 Overcast OVC003 44.6 44.6 100% 30.1 0.0
03 05:50 Calm 2.00 Fog/Mist OVC003 44.6 44.6 100% 30.09 0.0
03 05:30 Calm 0.50 Fog OVC001 44.6 44.6 100% 30.09 0.0
03 05:10 Calm 1.25 Fog/Mist BKN001 44.6 44.6 100% 30.09 0.0
03 04:50 Calm 7.00 Fair CLR 46.4 46.4 100% 30.08 0.0
03 04:30 Calm 10.00 Mostly Cloudy SCT002 BKN027 BKN034 46.4 46.4 100% 30.07 0.0
Date Time (edt) Wind (mph) Vis. (mi.) Weather Sky Cond. Air Dwpt Max. Min. Relative Humidity Wind Chill (°F) Heat Index (°F) altimeter (in) sea level (mb) 1 hr 3 hr 6 hr
6 hour
Temperature (ºF) Pressure Precipitation (in)